FDX335 EDDF-EGCC
Flight info
| Callsign | FDX335 |
|---|---|
| Flight time | 1h 15m |
| Altitude | 32000 |
| Route | OBOKA5G/25C OBOKA Z29 TORNU DCT BATAK DCT GALSO Q63 ERING L179 LAM UN57 WELIN T420 ELVOS |
| Aircraft | B77L/H-SDE1E2E3FGHIJ2J3J4J5M1RWXY/LB1D1 |
Departure
| Time | 2026-05-07 10:58 |
|---|---|
| Airport | Frankfurt Main Airport (EDDF) |
Arrival
| Time | 2026-05-07 12:13 |
|---|---|
| Airport | Manchester Airport (EGCC) |
| Time | Latitude | Longitude | Altitude | Speed | Heading |
|---|---|---|---|---|---|
| 2026-05-07 10:28 | 50.04057 | 8.54776 | 356 ft | 0 kts | 68° |
| 2026-05-07 10:39 | 50.04057 | 8.54774 | 356 ft | 2 kts | 68° |
| 2026-05-07 10:39 | 50.04050 | 8.54747 | 357 ft | 3 kts | 51° |
| 2026-05-07 10:39 | 50.04036 | 8.54730 | 360 ft | 3 kts | 30° |
| 2026-05-07 10:40 | 50.04023 | 8.54712 | 356 ft | 3 kts | 69° |
| 2026-05-07 10:40 | 50.04020 | 8.54684 | 360 ft | 3 kts | 109° |
| 2026-05-07 10:40 | 50.04029 | 8.54661 | 360 ft | 3 kts | 149° |
| 2026-05-07 10:40 | 50.04035 | 8.54656 | 360 ft | 0 kts | 159° |
| 2026-05-07 10:42 | 50.04000 | 8.54676 | 356 ft | 9 kts | 163° |
| 2026-05-07 10:43 | 50.03944 | 8.54657 | 360 ft | 4 kts | 219° |
| 2026-05-07 10:43 | 50.03942 | 8.54656 | 360 ft | 2 kts | 214° |
| 2026-05-07 10:43 | 50.03930 | 8.54654 | 356 ft | 2 kts | 177° |
| 2026-05-07 10:43 | 50.03920 | 8.54661 | 356 ft | 1 kts | 152° |
| 2026-05-07 10:44 | 50.03911 | 8.54685 | 360 ft | 5 kts | 107° |
| 2026-05-07 10:44 | 50.03925 | 8.54737 | 360 ft | 6 kts | 52° |
| 2026-05-07 10:44 | 50.03937 | 8.54767 | 358 ft | 0 kts | 60° |
| 2026-05-07 10:45 | 50.03937 | 8.54768 | 358 ft | 0 kts | 60° |
| 2026-05-07 10:45 | 50.03956 | 8.54780 | 358 ft | 3 kts | 4° |
| 2026-05-07 10:45 | 50.03959 | 8.54681 | 357 ft | 17 kts | 218° |
| 2026-05-07 10:46 | 50.03902 | 8.54541 | 356 ft | 10 kts | 252° |
| 2026-05-07 10:46 | 50.03878 | 8.54436 | 357 ft | 11 kts | 249° |
| 2026-05-07 10:46 | 50.03829 | 8.54357 | 358 ft | 11 kts | 199° |
| 2026-05-07 10:46 | 50.03763 | 8.54365 | 359 ft | 9 kts | 165° |
| 2026-05-07 10:47 | 50.03713 | 8.54422 | 356 ft | 9 kts | 120° |
| 2026-05-07 10:47 | 50.03710 | 8.54520 | 358 ft | 9 kts | 76° |
| 2026-05-07 10:47 | 50.03730 | 8.54616 | 357 ft | 9 kts | 70° |
| 2026-05-07 10:47 | 50.03753 | 8.54711 | 358 ft | 9 kts | 69° |
| 2026-05-07 10:48 | 50.03777 | 8.54808 | 356 ft | 10 kts | 69° |
| 2026-05-07 10:48 | 50.03793 | 8.54873 | 358 ft | 10 kts | 69° |
| 2026-05-07 10:48 | 50.03818 | 8.54972 | 357 ft | 10 kts | 69° |
| 2026-05-07 10:48 | 50.03847 | 8.55089 | 353 ft | 12 kts | 69° |
| 2026-05-07 10:49 | 50.03875 | 8.55212 | 355 ft | 12 kts | 71° |
| 2026-05-07 10:49 | 50.03903 | 8.55335 | 358 ft | 12 kts | 70° |
| 2026-05-07 10:49 | 50.03932 | 8.55458 | 357 ft | 12 kts | 70° |
| 2026-05-07 10:49 | 50.03961 | 8.55582 | 355 ft | 12 kts | 70° |
| 2026-05-07 10:50 | 50.03990 | 8.55703 | 352 ft | 12 kts | 70° |
| 2026-05-07 10:50 | 50.04020 | 8.55827 | 355 ft | 12 kts | 70° |
| 2026-05-07 10:50 | 50.04049 | 8.55950 | 357 ft | 12 kts | 70° |
| 2026-05-07 10:50 | 50.04078 | 8.56074 | 354 ft | 12 kts | 70° |
| 2026-05-07 10:51 | 50.04108 | 8.56197 | 358 ft | 12 kts | 70° |
| 2026-05-07 10:51 | 50.04137 | 8.56321 | 351 ft | 12 kts | 70° |
| 2026-05-07 10:51 | 50.04166 | 8.56445 | 358 ft | 12 kts | 70° |
| 2026-05-07 10:51 | 50.04195 | 8.56567 | 359 ft | 12 kts | 70° |
| 2026-05-07 10:52 | 50.04225 | 8.56691 | 357 ft | 12 kts | 70° |
| 2026-05-07 10:52 | 50.04254 | 8.56814 | 356 ft | 12 kts | 70° |
| 2026-05-07 10:52 | 50.04284 | 8.56938 | 358 ft | 12 kts | 70° |
| 2026-05-07 10:52 | 50.04313 | 8.57062 | 357 ft | 12 kts | 70° |
| 2026-05-07 10:53 | 50.04343 | 8.57186 | 358 ft | 12 kts | 70° |
| 2026-05-07 10:53 | 50.04372 | 8.57310 | 359 ft | 12 kts | 70° |
| 2026-05-07 10:53 | 50.04402 | 8.57435 | 357 ft | 12 kts | 70° |
| 2026-05-07 10:53 | 50.04432 | 8.57559 | 358 ft | 12 kts | 69° |
| 2026-05-07 10:54 | 50.04462 | 8.57682 | 356 ft | 12 kts | 69° |
| 2026-05-07 10:54 | 50.04492 | 8.57806 | 358 ft | 12 kts | 69° |
| 2026-05-07 10:54 | 50.04522 | 8.57931 | 355 ft | 12 kts | 70° |
| 2026-05-07 10:54 | 50.04531 | 8.58038 | 356 ft | 6 kts | 68° |
| 2026-05-07 10:55 | 50.04550 | 8.58086 | 358 ft | 17 kts | 60° |
| 2026-05-07 10:55 | 50.04600 | 8.58262 | 355 ft | 17 kts | 69° |
| 2026-05-07 10:55 | 50.04641 | 8.58429 | 351 ft | 16 kts | 70° |
| 2026-05-07 10:55 | 50.04629 | 8.58554 | 359 ft | 11 kts | 136° |
| 2026-05-07 10:56 | 50.04606 | 8.58575 | 356 ft | 3 kts | 152° |
| 2026-05-07 10:56 | 50.04603 | 8.58578 | 357 ft | 0 kts | 153° |
| 2026-05-07 10:56 | 50.04600 | 8.58580 | 357 ft | 2 kts | 153° |
| 2026-05-07 10:56 | 50.04533 | 8.58615 | 358 ft | 11 kts | 178° |
| 2026-05-07 10:57 | 50.04480 | 8.58546 | 350 ft | 7 kts | 243° |
| 2026-05-07 10:57 | 50.04476 | 8.58532 | 358 ft | 9 kts | 244° |
| 2026-05-07 10:57 | 50.04365 | 8.58077 | 357 ft | 95 kts | 250° |
| 2026-05-07 10:57 | 50.04019 | 8.56629 | 387 ft | 190 kts | 249° |
| 2026-05-07 10:58 | 50.03512 | 8.54510 | 1015 ft | 223 kts | 251° |
| 2026-05-07 10:58 | 50.02995 | 8.52118 | 1972 ft | 243 kts | 253° |
| 2026-05-07 10:58 | 50.02399 | 8.49622 | 3112 ft | 247 kts | 249° |
| 2026-05-07 10:58 | 50.01558 | 8.47433 | 4100 ft | 231 kts | 226° |
| 2026-05-07 10:59 | 50.00171 | 8.46311 | 4734 ft | 229 kts | 192° |
| 2026-05-07 10:59 | 49.98523 | 8.45785 | 4895 ft | 259 kts | 206° |
| 2026-05-07 10:59 | 49.97193 | 8.43905 | 5485 ft | 264 kts | 246° |
| 2026-05-07 10:59 | 49.96858 | 8.41147 | 6433 ft | 262 kts | 279° |
| 2026-05-07 11:00 | 49.97216 | 8.38374 | 7161 ft | 264 kts | 280° |
| 2026-05-07 11:00 | 49.97279 | 8.35477 | 7963 ft | 272 kts | 268° |
| 2026-05-07 11:00 | 49.97036 | 8.32562 | 8976 ft | 272 kts | 261° |
| 2026-05-07 11:00 | 49.96626 | 8.29657 | 9717 ft | 276 kts | 257° |
| 2026-05-07 11:01 | 49.96129 | 8.26784 | 9926 ft | 281 kts | 256° |
| 2026-05-07 11:01 | 49.95572 | 8.23802 | 10057 ft | 297 kts | 255° |
| 2026-05-07 11:01 | 49.94969 | 8.20575 | 10271 ft | 322 kts | 258° |
| 2026-05-07 11:01 | 49.94797 | 8.17028 | 10389 ft | 342 kts | 281° |
| 2026-05-07 11:02 | 49.95779 | 8.13610 | 10962 ft | 356 kts | 309° |
| 2026-05-07 11:02 | 49.97653 | 8.11079 | 11669 ft | 358 kts | 324° |
| 2026-05-07 11:02 | 49.99671 | 8.08756 | 12234 ft | 367 kts | 320° |
| 2026-05-07 11:02 | 50.01635 | 8.06155 | 13109 ft | 373 kts | 319° |
| 2026-05-07 11:03 | 50.03588 | 8.03465 | 14075 ft | 377 kts | 318° |
| 2026-05-07 11:03 | 50.05566 | 8.00743 | 14914 ft | 380 kts | 319° |
| 2026-05-07 11:03 | 50.07564 | 7.98020 | 15763 ft | 385 kts | 319° |
| 2026-05-07 11:03 | 50.09610 | 7.95251 | 16418 ft | 393 kts | 319° |
| 2026-05-07 11:04 | 50.11650 | 7.92498 | 17372 ft | 394 kts | 319° |
| 2026-05-07 11:04 | 50.13749 | 7.89670 | 18051 ft | 403 kts | 319° |
| 2026-05-07 11:04 | 50.15872 | 7.86806 | 18890 ft | 403 kts | 319° |
| 2026-05-07 11:04 | 50.18004 | 7.83931 | 19597 ft | 407 kts | 319° |
| 2026-05-07 11:05 | 50.20151 | 7.81031 | 20359 ft | 409 kts | 319° |
| 2026-05-07 11:05 | 50.22320 | 7.78097 | 21021 ft | 414 kts | 319° |
| 2026-05-07 11:05 | 50.24575 | 7.75247 | 21627 ft | 420 kts | 324° |
| 2026-05-07 11:05 | 50.27066 | 7.72782 | 22202 ft | 427 kts | 330° |
| 2026-05-07 11:06 | 50.29750 | 7.70756 | 22861 ft | 432 kts | 337° |
| 2026-05-07 11:06 | 50.32525 | 7.68996 | 23416 ft | 437 kts | 336° |
| 2026-05-07 11:06 | 50.35323 | 7.67117 | 24068 ft | 439 kts | 335° |
| 2026-05-07 11:06 | 50.38127 | 7.65171 | 24662 ft | 442 kts | 335° |
| 2026-05-07 11:07 | 50.40957 | 7.63209 | 25116 ft | 448 kts | 335° |
| 2026-05-07 11:07 | 50.43823 | 7.61230 | 25613 ft | 452 kts | 336° |
| 2026-05-07 11:07 | 50.46720 | 7.59235 | 26201 ft | 453 kts | 336° |
| 2026-05-07 11:07 | 50.49618 | 7.57239 | 26785 ft | 456 kts | 336° |
| 2026-05-07 11:08 | 50.52536 | 7.55224 | 27274 ft | 460 kts | 336° |
| 2026-05-07 11:08 | 50.55438 | 7.53166 | 27689 ft | 465 kts | 334° |
| 2026-05-07 11:08 | 50.58285 | 7.50676 | 28143 ft | 468 kts | 327° |
| 2026-05-07 11:08 | 50.60972 | 7.47772 | 28746 ft | 469 kts | 324° |
| 2026-05-07 11:09 | 50.63679 | 7.44876 | 29139 ft | 474 kts | 326° |
| 2026-05-07 11:09 | 50.66471 | 7.42017 | 29468 ft | 479 kts | 327° |
| 2026-05-07 11:09 | 50.69282 | 7.39159 | 29906 ft | 481 kts | 327° |
| 2026-05-07 11:09 | 50.72014 | 7.36135 | 30433 ft | 478 kts | 320° |
| 2026-05-07 11:10 | 50.74349 | 7.32510 | 31003 ft | 475 kts | 310° |
| 2026-05-07 11:10 | 50.76311 | 7.28340 | 31569 ft | 472 kts | 302° |
| 2026-05-07 11:10 | 50.77864 | 7.23797 | 32164 ft | 469 kts | 295° |
| 2026-05-07 11:10 | 50.79271 | 7.19155 | 32614 ft | 468 kts | 296° |
| 2026-05-07 11:11 | 50.80738 | 7.14525 | 32978 ft | 470 kts | 297° |
| 2026-05-07 11:11 | 50.82225 | 7.09936 | 33543 ft | 466 kts | 297° |
| 2026-05-07 11:11 | 50.83699 | 7.05403 | 34199 ft | 461 kts | 297° |
| 2026-05-07 11:11 | 50.85160 | 7.00886 | 34483 ft | 463 kts | 297° |
| 2026-05-07 11:12 | 50.86627 | 6.96329 | 34660 ft | 466 kts | 297° |
| 2026-05-07 11:12 | 50.88100 | 6.91747 | 34887 ft | 469 kts | 297° |
| 2026-05-07 11:12 | 50.89580 | 6.87151 | 35264 ft | 466 kts | 296° |
| 2026-05-07 11:12 | 50.91034 | 6.82633 | 35675 ft | 464 kts | 296° |
| 2026-05-07 11:13 | 50.93997 | 6.73403 | 35832 ft | 474 kts | 296° |
| 2026-05-07 11:13 | 50.96977 | 6.64078 | 35912 ft | 472 kts | 296° |
| 2026-05-07 11:14 | 50.99925 | 6.54815 | 35906 ft | 468 kts | 296° |
| 2026-05-07 11:14 | 51.02850 | 6.45589 | 35915 ft | 466 kts | 296° |
| 2026-05-07 11:15 | 51.05758 | 6.36384 | 35914 ft | 466 kts | 296° |
| 2026-05-07 11:15 | 51.08659 | 6.27165 | 35917 ft | 466 kts | 296° |
| 2026-05-07 11:16 | 51.11539 | 6.17983 | 35915 ft | 467 kts | 296° |
| 2026-05-07 11:16 | 51.14236 | 6.08576 | 35907 ft | 467 kts | 289° |
| 2026-05-07 11:17 | 51.15855 | 5.98557 | 35916 ft | 467 kts | 283° |
| 2026-05-07 11:17 | 51.17475 | 5.88510 | 35916 ft | 468 kts | 286° |
| 2026-05-07 11:18 | 51.19935 | 5.78873 | 35915 ft | 470 kts | 297° |
| 2026-05-07 11:18 | 51.23307 | 5.69920 | 35921 ft | 471 kts | 300° |
| 2026-05-07 11:19 | 51.26704 | 5.61021 | 35915 ft | 472 kts | 300° |
| 2026-05-07 11:19 | 51.30088 | 5.52030 | 35917 ft | 472 kts | 300° |
| 2026-05-07 11:20 | 51.33454 | 5.43026 | 35942 ft | 472 kts | 300° |
| 2026-05-07 11:20 | 51.36817 | 5.34001 | 35945 ft | 471 kts | 300° |
| 2026-05-07 11:21 | 51.40153 | 5.25020 | 35948 ft | 471 kts | 299° |
| 2026-05-07 11:21 | 51.43494 | 5.15994 | 35939 ft | 470 kts | 299° |
| 2026-05-07 11:22 | 51.46830 | 5.06952 | 35955 ft | 470 kts | 299° |
| 2026-05-07 11:22 | 51.50126 | 4.97984 | 35946 ft | 470 kts | 299° |
| 2026-05-07 11:23 | 51.53441 | 4.88937 | 35945 ft | 469 kts | 299° |
| 2026-05-07 11:23 | 51.56430 | 4.79640 | 35947 ft | 467 kts | 289° |
| 2026-05-07 11:24 | 51.58176 | 4.69597 | 35940 ft | 465 kts | 278° |
| 2026-05-07 11:24 | 51.59192 | 4.59368 | 35938 ft | 466 kts | 278° |
| 2026-05-07 11:25 | 51.60253 | 4.49063 | 35940 ft | 466 kts | 278° |
| 2026-05-07 11:25 | 51.61327 | 4.38756 | 35940 ft | 467 kts | 278° |
| 2026-05-07 11:26 | 51.62395 | 4.28453 | 35938 ft | 467 kts | 278° |
| 2026-05-07 11:26 | 51.63449 | 4.18184 | 35941 ft | 468 kts | 278° |
| 2026-05-07 11:27 | 51.64499 | 4.07850 | 35935 ft | 468 kts | 278° |
| 2026-05-07 11:27 | 51.65540 | 3.97507 | 35938 ft | 468 kts | 278° |
| 2026-05-07 11:28 | 51.66574 | 3.87143 | 35932 ft | 467 kts | 278° |
| 2026-05-07 11:28 | 51.67590 | 3.76860 | 35941 ft | 467 kts | 278° |
| 2026-05-07 11:29 | 51.68604 | 3.66508 | 35947 ft | 467 kts | 278° |
| 2026-05-07 11:29 | 51.69607 | 3.56162 | 35947 ft | 467 kts | 278° |
| 2026-05-07 11:30 | 51.70602 | 3.45806 | 35952 ft | 467 kts | 278° |
| 2026-05-07 11:30 | 51.71581 | 3.35515 | 35950 ft | 467 kts | 278° |
| 2026-05-07 11:31 | 51.72559 | 3.25157 | 35956 ft | 467 kts | 277° |
| 2026-05-07 11:31 | 51.73001 | 3.14739 | 35954 ft | 466 kts | 267° |
| 2026-05-07 11:32 | 51.71752 | 2.99212 | 35964 ft | 465 kts | 261° |
| 2026-05-07 11:33 | 51.70851 | 2.88929 | 35957 ft | 466 kts | 261° |
| 2026-05-07 11:33 | 51.69949 | 2.78561 | 35957 ft | 466 kts | 261° |
| 2026-05-07 11:34 | 51.69034 | 2.68193 | 35956 ft | 467 kts | 261° |
| 2026-05-07 11:34 | 51.68112 | 2.57893 | 35950 ft | 467 kts | 261° |
| 2026-05-07 11:35 | 51.67172 | 2.47496 | 35951 ft | 467 kts | 261° |
| 2026-05-07 11:35 | 51.66202 | 2.37127 | 35951 ft | 468 kts | 261° |
| 2026-05-07 11:36 | 51.65221 | 2.26765 | 35953 ft | 468 kts | 261° |
| 2026-05-07 11:36 | 51.64242 | 2.16457 | 35954 ft | 468 kts | 261° |
| 2026-05-07 11:37 | 51.63264 | 2.06087 | 35956 ft | 468 kts | 261° |
| 2026-05-07 11:37 | 51.62334 | 1.95694 | 35956 ft | 469 kts | 261° |
| 2026-05-07 11:38 | 51.61535 | 1.87058 | 35956 ft | 469 kts | 261° |
| 2026-05-07 11:38 | 51.60402 | 1.74982 | 35954 ft | 469 kts | 261° |
| 2026-05-07 11:39 | 51.59585 | 1.66300 | 35956 ft | 469 kts | 261° |
| 2026-05-07 11:39 | 51.59230 | 1.55889 | 35949 ft | 470 kts | 273° |
| 2026-05-07 11:40 | 51.59777 | 1.45412 | 35962 ft | 470 kts | 274° |
| 2026-05-07 11:40 | 51.60223 | 1.34914 | 35958 ft | 470 kts | 273° |
| 2026-05-07 11:41 | 51.60650 | 1.24392 | 35958 ft | 470 kts | 273° |
| 2026-05-07 11:41 | 51.61057 | 1.13879 | 35956 ft | 471 kts | 272° |
| 2026-05-07 11:42 | 51.61453 | 1.03424 | 35957 ft | 471 kts | 272° |
| 2026-05-07 11:42 | 51.61847 | 0.92890 | 35948 ft | 471 kts | 272° |
| 2026-05-07 11:43 | 51.62274 | 0.82364 | 35946 ft | 471 kts | 273° |
| 2026-05-07 11:43 | 51.62709 | 0.71819 | 35946 ft | 472 kts | 272° |
| 2026-05-07 11:44 | 51.63014 | 0.61268 | 35944 ft | 472 kts | 272° |
| 2026-05-07 11:44 | 51.63406 | 0.50789 | 35949 ft | 472 kts | 272° |
| 2026-05-07 11:45 | 51.63777 | 0.40230 | 35943 ft | 472 kts | 272° |
| 2026-05-07 11:45 | 51.64130 | 0.29659 | 35945 ft | 472 kts | 272° |
| 2026-05-07 11:46 | 51.64701 | 0.19142 | 35932 ft | 471 kts | 283° |
| 2026-05-07 11:46 | 51.65869 | 0.14220 | 35964 ft | 472 kts | 297° |
| 2026-05-07 11:46 | 51.67695 | 0.09821 | 35939 ft | 474 kts | 310° |
| 2026-05-07 11:47 | 51.72352 | 0.02304 | 35948 ft | 474 kts | 314° |
| 2026-05-07 11:47 | 51.77006 | -0.05215 | 35950 ft | 477 kts | 314° |
| 2026-05-07 11:48 | 51.81668 | -0.12892 | 35948 ft | 480 kts | 314° |
| 2026-05-07 11:48 | 51.86348 | -0.20661 | 35952 ft | 483 kts | 314° |
| 2026-05-07 11:49 | 51.91051 | -0.28487 | 35949 ft | 485 kts | 313° |
| 2026-05-07 11:49 | 51.95761 | -0.36347 | 35950 ft | 486 kts | 314° |
| 2026-05-07 11:50 | 52.00440 | -0.44179 | 35937 ft | 486 kts | 313° |
| 2026-05-07 11:50 | 52.05139 | -0.52069 | 35947 ft | 485 kts | 314° |
| 2026-05-07 11:51 | 52.09824 | -0.59962 | 35942 ft | 485 kts | 314° |
| 2026-05-07 11:51 | 52.14499 | -0.67865 | 35945 ft | 484 kts | 314° |
| 2026-05-07 11:52 | 52.19167 | -0.75778 | 35941 ft | 484 kts | 314° |
| 2026-05-07 11:52 | 52.23926 | -0.83634 | 35266 ft | 490 kts | 319° |
| 2026-05-07 11:52 | 52.26577 | -0.87121 | 34533 ft | 490 kts | 325° |
| 2026-05-07 11:53 | 52.29445 | -0.90110 | 33777 ft | 488 kts | 331° |
| 2026-05-07 11:53 | 52.32377 | -0.92889 | 32978 ft | 487 kts | 331° |
| 2026-05-07 11:53 | 52.35248 | -0.95672 | 32201 ft | 486 kts | 330° |
| 2026-05-07 11:53 | 52.38108 | -0.98500 | 31401 ft | 472 kts | 330° |
| 2026-05-07 11:54 | 52.40875 | -1.01264 | 30646 ft | 459 kts | 329° |
| 2026-05-07 11:54 | 52.43561 | -1.03956 | 29827 ft | 446 kts | 329° |
| 2026-05-07 11:54 | 52.46175 | -1.06571 | 28960 ft | 435 kts | 329° |
| 2026-05-07 11:54 | 52.48731 | -1.09129 | 28113 ft | 425 kts | 329° |
| 2026-05-07 11:55 | 52.51227 | -1.11646 | 27294 ft | 416 kts | 328° |
| 2026-05-07 11:55 | 52.53670 | -1.14127 | 26503 ft | 410 kts | 328° |
| 2026-05-07 11:55 | 52.56092 | -1.16589 | 25750 ft | 409 kts | 328° |
| 2026-05-07 11:55 | 52.58514 | -1.19045 | 25012 ft | 408 kts | 328° |
| 2026-05-07 11:56 | 52.60898 | -1.21456 | 24305 ft | 406 kts | 328° |
| 2026-05-07 11:56 | 52.63327 | -1.23916 | 23582 ft | 402 kts | 327° |
| 2026-05-07 11:56 | 52.65667 | -1.26289 | 22756 ft | 399 kts | 327° |
| 2026-05-07 11:56 | 52.68018 | -1.28680 | 21966 ft | 394 kts | 327° |
| 2026-05-07 11:57 | 52.70336 | -1.31038 | 21208 ft | 388 kts | 327° |
| 2026-05-07 11:57 | 52.72608 | -1.33348 | 20553 ft | 379 kts | 327° |
| 2026-05-07 11:57 | 52.74837 | -1.35614 | 19984 ft | 372 kts | 327° |
| 2026-05-07 11:57 | 52.77034 | -1.37851 | 19369 ft | 367 kts | 327° |
| 2026-05-07 11:58 | 52.79194 | -1.40054 | 18813 ft | 361 kts | 327° |
| 2026-05-07 11:58 | 52.81319 | -1.42223 | 18288 ft | 357 kts | 327° |
| 2026-05-07 11:58 | 52.83401 | -1.44352 | 17693 ft | 356 kts | 327° |
| 2026-05-07 11:58 | 52.85510 | -1.46512 | 17117 ft | 357 kts | 327° |
| 2026-05-07 11:59 | 52.87618 | -1.48673 | 16552 ft | 356 kts | 327° |
| 2026-05-07 11:59 | 52.89715 | -1.50825 | 15985 ft | 354 kts | 327° |
| 2026-05-07 11:59 | 52.91822 | -1.52990 | 15523 ft | 359 kts | 327° |
| 2026-05-07 11:59 | 52.93949 | -1.55178 | 15093 ft | 358 kts | 326° |
| 2026-05-07 12:00 | 52.96047 | -1.57338 | 14663 ft | 351 kts | 326° |
| 2026-05-07 12:00 | 52.98128 | -1.59484 | 14240 ft | 353 kts | 327° |
| 2026-05-07 12:00 | 53.00189 | -1.61610 | 13853 ft | 352 kts | 326° |
| 2026-05-07 12:00 | 53.02243 | -1.63728 | 13386 ft | 344 kts | 326° |
| 2026-05-07 12:01 | 53.04277 | -1.65834 | 12960 ft | 345 kts | 326° |
| 2026-05-07 12:01 | 53.06223 | -1.68167 | 12538 ft | 344 kts | 313° |
| 2026-05-07 12:01 | 53.07785 | -1.71135 | 12159 ft | 338 kts | 306° |
| 2026-05-07 12:01 | 53.09237 | -1.74190 | 11778 ft | 335 kts | 307° |
| 2026-05-07 12:02 | 53.10695 | -1.77156 | 11384 ft | 326 kts | 307° |
| 2026-05-07 12:02 | 53.12124 | -1.79994 | 10964 ft | 310 kts | 308° |
| 2026-05-07 12:02 | 53.13477 | -1.82633 | 10599 ft | 290 kts | 307° |
| 2026-05-07 12:02 | 53.14734 | -1.85076 | 10262 ft | 273 kts | 307° |
| 2026-05-07 12:03 | 53.15960 | -1.87463 | 9947 ft | 271 kts | 309° |
| 2026-05-07 12:03 | 53.17448 | -1.89510 | 9624 ft | 288 kts | 332° |
| 2026-05-07 12:03 | 53.19402 | -1.90330 | 9314 ft | 294 kts | 0° |
| 2026-05-07 12:03 | 53.21355 | -1.89785 | 9080 ft | 276 kts | 15° |
| 2026-05-07 12:04 | 53.23155 | -1.88926 | 8655 ft | 265 kts | 15° |
| 2026-05-07 12:04 | 53.24907 | -1.88097 | 8199 ft | 258 kts | 15° |
| 2026-05-07 12:04 | 53.26621 | -1.87272 | 7682 ft | 255 kts | 15° |
| 2026-05-07 12:04 | 53.28327 | -1.86469 | 7122 ft | 253 kts | 8° |
| 2026-05-07 12:05 | 53.30047 | -1.86480 | 6593 ft | 244 kts | 344° |
| 2026-05-07 12:05 | 53.31662 | -1.87126 | 6234 ft | 233 kts | 345° |
| 2026-05-07 12:05 | 53.33196 | -1.87676 | 6031 ft | 215 kts | 345° |
| 2026-05-07 12:05 | 53.34622 | -1.88155 | 5977 ft | 209 kts | 345° |
| 2026-05-07 12:06 | 53.36083 | -1.88635 | 5968 ft | 222 kts | 346° |
| 2026-05-07 12:06 | 53.37609 | -1.89147 | 5900 ft | 226 kts | 346° |
| 2026-05-07 12:06 | 53.39190 | -1.89694 | 5632 ft | 228 kts | 345° |
| 2026-05-07 12:06 | 53.40694 | -1.90215 | 5245 ft | 219 kts | 345° |
| 2026-05-07 12:07 | 53.42149 | -1.90718 | 4811 ft | 208 kts | 345° |
| 2026-05-07 12:07 | 53.43547 | -1.91188 | 4382 ft | 202 kts | 346° |
| 2026-05-07 12:07 | 53.44910 | -1.91669 | 4022 ft | 199 kts | 343° |
| 2026-05-07 12:07 | 53.46117 | -1.92694 | 3709 ft | 194 kts | 309° |
| 2026-05-07 12:08 | 53.46684 | -1.94666 | 3471 ft | 189 kts | 275° |
| 2026-05-07 12:08 | 53.46850 | -1.96862 | 3277 ft | 192 kts | 275° |
| 2026-05-07 12:08 | 53.47054 | -1.99080 | 3096 ft | 190 kts | 275° |
| 2026-05-07 12:08 | 53.47237 | -2.01254 | 3078 ft | 189 kts | 269° |
| 2026-05-07 12:09 | 53.46938 | -2.03289 | 3006 ft | 178 kts | 232° |
| 2026-05-07 12:09 | 53.46147 | -2.04858 | 3008 ft | 177 kts | 230° |
| 2026-05-07 12:09 | 53.45488 | -2.06609 | 3027 ft | 177 kts | 233° |
| 2026-05-07 12:09 | 53.44752 | -2.08210 | 3006 ft | 168 kts | 227° |
| 2026-05-07 12:10 | 53.44009 | -2.09711 | 2767 ft | 165 kts | 227° |
| 2026-05-07 12:10 | 53.43292 | -2.11180 | 2543 ft | 165 kts | 227° |
| 2026-05-07 12:10 | 53.42572 | -2.12664 | 2327 ft | 162 kts | 227° |
| 2026-05-07 12:10 | 53.41853 | -2.14146 | 2113 ft | 164 kts | 228° |
| 2026-05-07 12:11 | 53.41142 | -2.15618 | 1864 ft | 161 kts | 227° |
| 2026-05-07 12:11 | 53.40433 | -2.17077 | 1667 ft | 163 kts | 227° |
| 2026-05-07 12:11 | 53.39719 | -2.18555 | 1446 ft | 165 kts | 227° |
| 2026-05-07 12:11 | 53.39001 | -2.20034 | 1193 ft | 164 kts | 227° |
| 2026-05-07 12:12 | 53.38284 | -2.21513 | 1004 ft | 165 kts | 228° |
| 2026-05-07 12:12 | 53.37562 | -2.23004 | 739 ft | 164 kts | 228° |
| 2026-05-07 12:12 | 53.36845 | -2.24486 | 530 ft | 165 kts | 229° |
| 2026-05-07 12:12 | 53.36110 | -2.25976 | 308 ft | 165 kts | 231° |
| 2026-05-07 12:13 | 53.35451 | -2.27332 | 266 ft | 102 kts | 231° |
| 2026-05-07 12:13 | 53.35265 | -2.27773 | 254 ft | 22 kts | 261° |
| 2026-05-07 12:13 | 53.35246 | -2.27989 | 247 ft | 13 kts | 261° |
| 2026-05-07 12:13 | 53.35243 | -2.28028 | 245 ft | 6 kts | 261° |
| 2026-05-07 12:14 | 53.35240 | -2.28133 | 241 ft | 11 kts | 289° |
| 2026-05-07 12:14 | 53.35306 | -2.28154 | 243 ft | 11 kts | 31° |
| 2026-05-07 12:14 | 53.35364 | -2.28074 | 246 ft | 11 kts | 41° |
| 2026-05-07 12:14 | 53.35420 | -2.27989 | 247 ft | 11 kts | 41° |
| 2026-05-07 12:15 | 53.35484 | -2.27924 | 249 ft | 11 kts | 15° |
| 2026-05-07 12:15 | 53.35561 | -2.27906 | 251 ft | 11 kts | 7° |
| 2026-05-07 12:15 | 53.35638 | -2.27893 | 251 ft | 11 kts | 5° |
| 2026-05-07 12:15 | 53.35718 | -2.27880 | 251 ft | 11 kts | 5° |
| 2026-05-07 12:16 | 53.35798 | -2.27867 | 252 ft | 11 kts | 5° |
| 2026-05-07 12:16 | 53.35877 | -2.27854 | 252 ft | 11 kts | 5° |
| 2026-05-07 12:16 | 53.35957 | -2.27854 | 252 ft | 11 kts | 345° |
| 2026-05-07 12:16 | 53.36021 | -2.27931 | 252 ft | 11 kts | 318° |
| 2026-05-07 12:17 | 53.36080 | -2.28022 | 252 ft | 11 kts | 315° |
| 2026-05-07 12:17 | 53.36136 | -2.28116 | 252 ft | 11 kts | 315° |
| 2026-05-07 12:17 | 53.36193 | -2.28211 | 252 ft | 11 kts | 315° |
| 2026-05-07 12:17 | 53.36249 | -2.28306 | 252 ft | 11 kts | 314° |